createdAt,value
2023-02-09T08:59:54.814Z,103408.47
2023-02-09T09:02:59.001Z,103405.54
2023-02-09T09:05:36.182Z,103398.85
2023-02-09T09:08:07.174Z,103399.24
2023-02-09T09:10:46.141Z,103388.81
2023-02-09T09:13:21.071Z,103388.98
2023-02-09T09:16:00.340Z,103388.41
2023-02-09T09:18:34.742Z,103384.15
2023-02-09T09:21:17.660Z,103382.85
2023-02-09T09:24:09.166Z,103383.98
2023-02-09T09:26:39.793Z,103372.55
2023-02-09T09:29:11.028Z,103371.36
2023-02-09T09:32:31.395Z,103372.92
2023-02-09T09:35:46.734Z,103365.96
2023-02-09T09:38:39.098Z,103356.05
2023-02-09T09:41:29.319Z,103352.66
2023-02-09T09:59:47.511Z,103324.33
2023-02-09T10:06:41.995Z,103322.22
2023-02-09T10:40:20.128Z,103277.36
2023-02-09T10:43:56.819Z,103276.61
2023-02-09T10:52:30.086Z,103270.91
2023-02-09T10:57:25.648Z,103256.52
2023-02-09T11:00:01.818Z,103250.61
2023-02-09T11:03:20.028Z,103238.97
2023-02-09T11:06:12.915Z,103242.44
2023-02-09T11:09:36.492Z,103234.78
2023-02-09T11:25:14.317Z,103226.06
2023-02-09T11:32:32.163Z,103205.68
2023-02-09T11:37:59.538Z,103189.89
2023-02-09T11:41:08.241Z,103188.14
2023-02-09T11:43:43.235Z,103186.73
2023-02-09T11:46:32.313Z,103186.62
2023-02-09T11:52:47.976Z,103186.18
2023-02-09T11:55:45.934Z,103181.86
2023-02-09T11:58:53.759Z,103179.90
2023-02-09T12:26:19.614Z,103167.01
2023-02-09T12:36:12.272Z,103164.94
2023-02-09T12:39:07.876Z,103164.98
2023-02-09T12:42:15.952Z,103160.81
2023-02-09T13:02:58.714Z,103147.11
2023-02-09T13:10:40.626Z,103141.08
2023-02-09T13:13:34.094Z,103132.04
2023-02-09T21:16:31.619Z,103040.36
2023-02-09T21:19:03.675Z,103041.14
2023-02-09T21:21:35.550Z,103043.52
2023-02-09T21:24:11.270Z,103036.78
2023-02-09T21:26:44.138Z,103036.42
2023-02-09T21:29:25.708Z,103032.73
2023-02-09T21:32:12.125Z,103035.86
2023-02-09T21:34:58.601Z,103033.61
2023-02-09T21:37:37.834Z,103039.50
2023-02-09T21:40:12.962Z,103040.33
2023-02-09T21:42:42.192Z,103042.36
2023-02-09T21:45:11.439Z,103045.27
2023-02-09T21:47:40.162Z,103039.27
2023-02-09T21:50:11.079Z,103039.96
2023-02-09T21:52:40.685Z,103035.54
2023-02-09T21:57:58.252Z,103033.14
2023-02-09T22:00:35.027Z,103031.08
2023-02-09T22:03:17.096Z,103026.41
2023-02-09T22:05:46.658Z,103026.05
2023-02-09T22:08:18.375Z,103020.47
2023-02-09T22:10:50.697Z,103024.73
2023-02-09T22:13:29.887Z,103015.33
2023-02-09T22:16:08.330Z,103013.69
2023-02-09T22:18:38.896Z,103012.52
2023-02-09T22:21:08.116Z,103013.45
2023-02-09T22:23:37.732Z,103014.85
2023-02-09T22:26:07.365Z,103013.00
2023-02-09T22:28:36.679Z,103010.02
2023-02-09T22:31:10.130Z,103008.30
2023-02-09T22:33:40.688Z,103013.75
2023-02-09T22:36:13.114Z,103010.89
2023-02-09T22:38:47.781Z,103007.33
2023-02-09T22:41:37.354Z,103006.70
2023-02-09T22:44:08.982Z,103006.54
2023-02-09T22:46:58.287Z,103002.16
2023-02-09T22:49:30.422Z,103000.21
2023-02-09T22:52:09.709Z,102998.98
2023-02-09T22:54:39.728Z,102993.36
2023-02-09T22:57:11.469Z,102993.75
2023-02-09T22:59:41.609Z,102994.52
2023-02-09T23:02:12.655Z,102991.07
2023-02-09T23:04:41.745Z,102990.36
2023-02-09T23:07:11.747Z,102988.02
2023-02-09T23:09:40.345Z,102988.37
2023-02-09T23:12:08.790Z,102985.87
2023-02-09T23:14:38.329Z,102984.77
2023-02-09T23:17:07.127Z,102988.98
2023-02-09T23:19:36.354Z,102990.95
2023-02-09T23:22:05.708Z,102985.52
2023-02-09T23:24:35.198Z,102982.00
2023-02-09T23:27:03.811Z,102982.28
2023-02-09T23:29:33.567Z,102982.03
2023-02-09T23:32:02.929Z,102982.80
2023-02-09T23:34:33.930Z,102980.13
2023-02-09T23:37:18.384Z,102982.42
2023-02-09T23:39:48.875Z,102980.08
2023-02-09T23:42:18.811Z,102984.70
2023-02-09T23:44:48.515Z,102981.96
2023-02-09T23:47:17.166Z,102982.17
2023-02-09T23:49:46.771Z,102982.49
2023-02-09T23:52:18.047Z,102977.95
2023-02-09T23:54:46.944Z,102974.80
2023-02-09T23:57:22.659Z,102971.13
2023-02-09T23:59:51.422Z,102966.59
